Time;durP1;ratioP1;P1;durP2;ratioP2;P2;SDS_P1;SDS_P2;PMS_P1;PMS_P2;Temp;Humidity;BMP_temperature;BMP_pressure;BME280_temperature;BME280_humidity;BME280_pressure;Samples;Min_cycle;Max_cycle;Signal;HPM_P1;HPM_P2
2022/11/08 00:02:01;;;;;;;13.13;3.35;;;;;;;11.58;98.80;100892.88;4991456;28;20037;-76
2022/11/08 00:04:27;;;;;;;9.45;3.05;;;;;;;11.56;98.67;100886.91;4981282;28;20475;-84
2022/11/08 00:15:05;;;;;;;11.95;3.20;;;;;;;11.46;99.50;100895.63;4992024;28;20150;-84
2022/11/08 00:17:31;;;;;;;8.88;2.90;;;;;;;11.43;99.90;100887.97;4991291;28;20030;-76
2022/11/08 00:19:56;;;;;;;11.02;2.85;;;;;;;11.42;99.79;100883.66;5006777;28;20026;-76
2022/11/08 00:22:22;;;;;;;10.70;3.17;;;;;;;11.42;100.00;100883.66;4992002;28;20102;-75
2022/11/08 00:24:48;;;;;;;11.43;2.80;;;;;;;11.36;100.00;100889.41;4991191;28;20356;-75
2022/11/08 00:27:19;;;;;;;8.85;2.95;;;;;;;11.33;100.00;100890.47;4994854;28;20069;-75
2022/11/08 00:29:45;;;;;;;12.13;2.80;;;;;;;11.31;100.00;100881.84;4971625;28;20031;-76
2022/11/08 00:32:14;;;;;;;9.55;3.17;;;;;;;11.28;100.00;100888.19;4983555;28;20501;-76
2022/11/08 00:34:39;;;;;;;9.25;2.75;;;;;;;11.27;100.00;100883.88;4991500;28;20034;-75
2022/11/08 00:37:05;;;;;;;11.32;3.13;;;;;;;11.24;100.00;100876.22;4992610;28;20026;-76
2022/11/08 00:39:31;;;;;;;8.80;2.70;;;;;;;11.23;100.00;100879.81;4991903;28;20057;-76
2022/11/08 00:41:57;;;;;;;15.93;3.83;;;;;;;11.17;100.00;100874.97;4989975;28;20077;-76
2022/11/08 00:44:22;;;;;;;10.43;3.10;;;;;;;11.17;100.00;100868.88;4992513;28;20030;-76
2022/11/08 00:46:48;;;;;;;9.70;2.70;;;;;;;11.13;100.00;100870.91;4993265;28;20030;-83
2022/11/08 00:49:15;;;;;;;12.35;2.97;;;;;;;11.10;100.00;100876.41;4989739;28;20028;-76
2022/11/08 00:51:40;;;;;;;12.73;2.80;;;;;;;11.09;100.00;100866.00;4992700;28;20540;-84
2022/11/08 00:54:07;;;;;;;8.20;2.90;;;;;;;11.08;100.00;100874.84;4992157;28;20112;-85
2022/11/08 00:56:36;;;;;;;8.38;2.97;;;;;;;11.05;100.00;100860.13;4991380;28;20642;-76
2022/11/08 00:59:01;;;;;;;8.90;2.90;;;;;;;11.01;100.00;100863.94;4993082;28;20030;-76
2022/11/08 01:01:27;;;;;;;7.43;2.55;;;;;;;11.00;100.00;100867.53;4992562;28;20022;-76
2022/11/08 01:03:53;;;;;;;9.52;2.70;;;;;;;10.99;100.00;100860.59;4990419;28;20067;-76
2022/11/08 01:06:20;;;;;;;10.15;2.60;;;;;;;10.97;100.00;100857.22;4991452;28;20110;-76
2022/11/08 01:08:46;;;;;;;8.93;2.83;;;;;;;10.95;100.00;100864.41;5001930;28;20031;-76
2022/11/08 01:11:15;;;;;;;7.93;2.50;;;;;;;10.92;100.00;100864.66;5009097;28;20449;-76
2022/11/08 01:13:40;;;;;;;11.27;2.80;;;;;;;10.92;100.00;100862.00;5009549;28;20022;-75
2022/11/08 01:16:09;;;;;;;13.10;2.83;;;;;;;10.91;100.00;100858.53;5009798;28;20109;-76
2022/11/08 01:18:34;;;;;;;9.52;2.80;;;;;;;10.90;100.00;100854.22;5009778;28;20037;-84
2022/11/08 01:21:01;;;;;;;9.07;2.83;;;;;;;10.90;100.00;100861.28;4992847;28;20038;-84
2022/11/08 01:23:27;;;;;;;7.80;2.45;;;;;;;10.90;100.00;100850.75;4989850;28;20023;-76
2022/11/08 01:25:52;;;;;;;10.07;3.05;;;;;;;10.91;100.00;100852.44;4989687;28;20368;-76
2022/11/08 01:28:18;;;;;;;8.80;2.72;;;;;;;10.91;100.00;100852.44;4989390;28;20045;-76
2022/11/08 01:30:43;;;;;;;7.75;2.47;;;;;;;10.89;100.00;100843.81;4989130;28;20065;-76
2022/11/08 01:33:09;;;;;;;12.52;3.00;;;;;;;10.88;100.00;100847.41;4990527;28;20065;-76
2022/11/08 01:35:36;;;;;;;11.80;2.95;;;;;;;10.85;100.00;100842.38;4989854;28;20112;-76
2022/11/08 01:38:03;;;;;;;8.93;3.05;;;;;;;10.84;100.00;100841.53;4990201;28;20037;-76
2022/11/08 01:40:32;;;;;;;11.07;3.13;;;;;;;10.83;100.00;100834.59;4989056;28;20018;-76
2022/11/08 01:42:58;;;;;;;8.43;3.22;;;;;;;10.81;100.00;100839.13;4990702;28;20637;-76
2022/11/08 01:46:00;;;;;;;11.00;3.30;;;;;;;10.83;100.00;100823.22;5004892;28;20110;-76
2022/11/08 01:48:28;;;;;;;9.88;3.50;;;;;;;10.79;100.00;100812.06;4990359;28;20087;-76
2022/11/08 01:50:56;;;;;;;13.48;4.30;;;;;;;10.76;100.00;100811.47;4989774;28;20497;-76
2022/11/08 01:53:23;;;;;;;10.00;3.85;;;;;;;10.74;100.00;100808.09;4989884;28;20120;-76
2022/11/08 01:55:48;;;;;;;12.13;3.80;;;;;;;10.74;100.00;100808.09;4988910;28;20022;-85
2022/11/08 01:58:19;;;;;;;10.57;4.03;;;;;;;10.72;100.00;100813.47;4986476;28;20026;-84
2022/11/08 02:00:44;;;;;;;10.25;3.78;;;;;;;10.73;100.00;100798.53;4990034;28;20116;-76
2022/11/08 02:03:15;;;;;;;10.23;3.83;;;;;;;10.71;100.00;100800.44;4990722;28;20420;-76
2022/11/08 02:05:40;;;;;;;8.80;3.72;;;;;;;10.70;100.00;100790.88;4989413;28;20022;-76
2022/11/08 02:08:24;;;;;;;12.73;3.70;;;;;;;10.68;100.00;100789.19;4990853;28;20040;-76
2022/11/08 02:10:51;;;;;;;11.95;4.03;;;;;;;10.65;100.00;100789.44;4990419;28;20478;-84
2022/11/08 02:13:22;;;;;;;8.35;3.00;;;;;;;10.65;100.00;100780.69;4990117;28;20023;-76
2022/11/08 02:15:48;;;;;;;11.82;3.17;;;;;;;10.64;100.00;100787.75;5003919;28;20038;-76
2022/11/08 02:18:16;;;;;;;8.88;3.38;;;;;;;10.64;100.00;100787.75;4990973;28;20541;-76
2022/11/08 02:20:59;;;;;;;8.93;3.03;;;;;;;10.63;100.00;100782.59;4989620;28;20092;-76
2022/11/08 02:23:33;;;;;;;9.00;2.88;;;;;;;10.59;100.00;100781.16;4990760;28;20025;-76
2022/11/08 02:26:02;;;;;;;8.23;3.10;;;;;;;10.59;100.00;100768.84;4990548;28;20030;-76
2022/11/08 02:28:27;;;;;;;10.30;3.20;;;;;;;10.54;100.00;100770.97;4990165;28;20030;-76
2022/11/08 02:30:53;;;;;;;7.70;3.10;;;;;;;10.56;100.00;100762.97;4988483;28;20487;-76
2022/11/08 02:33:21;;;;;;;9.75;3.13;;;;;;;10.56;100.00;100763.81;4990362;28;20028;-76
2022/11/08 02:35:53;;;;;;;9.48;2.88;;;;;;;10.52;100.00;100749.22;4989113;28;20050;-76
2022/11/08 02:38:21;;;;;;;8.70;2.80;;;;;;;10.49;100.00;100749.44;4988680;28;20054;-77
2022/11/08 02:40:51;;;;;;;10.15;3.08;;;;;;;10.48;100.00;100750.41;4988092;28;20030;-76
2022/11/08 02:43:17;;;;;;;10.10;2.65;;;;;;;10.47;100.00;100746.09;4988676;28;20434;-76
2022/11/08 02:45:42;;;;;;;9.45;2.92;;;;;;;10.44;100.00;100746.34;4988225;28;20045;-76
2022/11/08 02:48:09;;;;;;;8.85;2.63;;;;;;;10.41;100.00;100741.31;5004007;28;20463;-76
2022/11/08 02:50:35;;;;;;;8.00;2.60;;;;;;;10.42;100.00;100729.81;4989110;28;20037;-76
2022/11/08 02:53:03;;;;;;;8.98;2.83;;;;;;;10.42;100.00;100727.19;4989773;28;20098;-77
2022/11/08 02:55:29;;;;;;;9.10;3.10;;;;;;;10.43;100.00;100720.97;5008448;28;20029;-76
2022/11/08 02:57:55;;;;;;;9.43;2.60;;;;;;;10.43;100.00;100718.34;5008764;28;20380;-84
2022/11/08 03:00:21;;;;;;;8.50;2.47;;;;;;;10.44;100.00;100714.78;5009229;28;20084;-76
2022/11/08 03:02:50;;;;;;;9.70;2.83;;;;;;;10.45;100.00;100708.56;4991413;28;20027;-76
2022/11/08 03:05:18;;;;;;;9.93;2.60;;;;;;;10.44;100.00;100706.03;4986466;28;20574;-77
2022/11/08 03:07:44;;;;;;;8.35;2.63;;;;;;;10.46;100.00;100694.44;4985376;28;20026;-77
2022/11/08 03:10:11;;;;;;;9.15;2.47;;;;;;;10.48;100.00;100686.44;4978087;28;20039;-77
2022/11/08 03:12:37;;;;;;;7.93;2.35;;;;;;;10.49;100.00;100686.31;4991892;28;20098;-77
2022/11/08 03:15:04;;;;;;;6.90;2.58;;;;;;;10.47;100.00;100682.97;4992086;28;20030;-77
2022/11/08 03:17:32;;;;;;;9.45;2.50;;;;;;;10.45;100.00;100682.25;4991355;28;20026;-77
2022/11/08 03:19:58;;;;;;;7.85;2.17;;;;;;;10.44;100.00;100680.56;4991904;28;20081;-77
2022/11/08 03:22:24;;;;;;;5.47;2.30;;;;;;;10.46;100.00;100677.81;4993242;28;20486;-78
2022/11/08 03:24:49;;;;;;;9.43;2.40;;;;;;;10.44;100.00;100682.38;4991663;28;20026;-83
2022/11/08 03:27:17;;;;;;;8.10;2.38;;;;;;;10.44;100.00;100671.84;4993683;28;20026;-84
2022/11/08 03:29:46;;;;;;;6.10;2.30;;;;;;;10.45;100.00;100671.72;4992675;28;20041;-78
2022/11/08 03:32:13;;;;;;;6.72;2.22;;;;;;;10.45;100.00;100671.72;4993520;28;20376;-76
2022/11/08 03:34:38;;;;;;;10.75;2.83;;;;;;;10.44;100.00;100661.31;4992770;28;20022;-76
2022/11/08 03:37:05;;;;;;;8.77;2.50;;;;;;;10.43;100.00;100647.34;4991795;28;20117;-77
2022/11/08 03:39:33;;;;;;;5.65;2.28;;;;;;;10.40;100.00;100647.53;4992003;28;20034;-77
2022/11/08 03:42:01;;;;;;;8.80;2.63;;;;;;;10.40;100.00;100647.53;4993647;28;20065;-77
2022/11/08 03:44:33;;;;;;;7.78;2.67;;;;;;;10.40;100.00;100625.66;4992907;28;20022;-77
2022/11/08 03:46:59;;;;;;;7.75;2.50;;;;;;;10.39;100.00;100626.63;4993207;28;20050;-77
2022/11/08 03:49:25;;;;;;;8.68;2.63;;;;;;;10.35;100.00;100631.28;4992075;28;20034;-85
2022/11/08 03:51:52;;;;;;;7.57;2.55;;;;;;;10.34;100.00;100622.56;4991948;28;20531;-77
2022/11/08 03:54:17;;;;;;;7.55;2.63;;;;;;;10.31;100.00;100612.28;4991805;28;20042;-77
2022/11/08 03:56:42;;;;;;;9.60;2.80;;;;;;;10.32;100.00;100615.75;4992120;28;20018;-77
2022/11/08 03:59:09;;;;;;;5.43;2.40;;;;;;;10.31;100.00;100608.81;4991364;28;20056;-77
2022/11/08 04:01:35;;;;;;;6.53;2.05;;;;;;;10.28;100.00;100603.78;4992391;28;20439;-77
2022/11/08 04:04:00;;;;;;;7.88;2.15;;;;;;;10.25;100.00;100618.00;4992323;28;20022;-77
2022/11/08 04:06:26;;;;;;;7.75;2.00;;;;;;;10.24;100.00;100605.81;4991751;28;20060;-77
2022/11/08 04:08:51;;;;;;;6.70;2.25;;;;;;;10.24;100.00;100600.56;4991850;28;20042;-77
2022/11/08 04:16:47;;;;;;;6.78;2.38;;;;;;;10.24;100.00;100579.53;4991758;28;20113;-76
2022/11/08 04:21:57;;;;;;;7.32;2.15;;;;;;;10.24;100.00;100578.69;4989885;28;20122;-77
2022/11/08 04:24:22;;;;;;;7.38;2.30;;;;;;;10.24;100.00;100578.69;4991204;28;20022;-84
2022/11/08 04:26:47;;;;;;;5.97;2.40;;;;;;;10.24;100.00;100581.31;4990674;28;20026;-76
2022/11/08 04:29:13;;;;;;;8.00;2.20;;;;;;;10.25;100.00;100575.09;4991063;28;20030;-85
2022/11/08 04:31:39;;;;;;;6.70;2.15;;;;;;;10.27;100.00;100573.19;4989785;28;20033;-76
2022/11/08 04:34:05;;;;;;;5.97;2.30;;;;;;;10.27;100.00;100567.91;5006064;28;20109;-77
2022/11/08 04:36:34;;;;;;;7.78;2.55;;;;;;;10.26;100.00;100561.00;4992021;28;20031;-76
2022/11/08 04:39:02;;;;;;;10.82;2.92;;;;;;;10.24;100.00;100553.22;4991973;28;20468;-84
2022/11/08 04:41:28;;;;;;;10.40;2.67;;;;;;;10.23;99.96;100550.72;4991507;28;20030;-77
2022/11/08 04:43:55;;;;;;;9.13;3.20;;;;;;;10.25;99.69;100559.31;4990057;28;20030;-76
2022/11/08 04:46:23;;;;;;;8.43;3.08;;;;;;;10.24;99.12;100558.47;4992298;28;20431;-76
2022/11/08 04:48:53;;;;;;;9.70;2.97;;;;;;;10.25;99.10;100549.63;5000609;28;20077;-76
2022/11/08 04:51:21;;;;;;;9.90;3.30;;;;;;;10.24;98.53;100541.88;4991850;28;20030;-77
2022/11/08 04:53:47;;;;;;;11.95;3.28;;;;;;;10.25;98.31;100525.13;5006347;28;20022;-76
2022/11/08 04:56:16;;;;;;;9.60;3.40;;;;;;;10.26;97.86;100534.69;4991651;28;20049;-76
2022/11/08 04:58:43;;;;;;;9.23;3.30;;;;;;;10.25;97.95;100527.75;4991561;28;20022;-84
2022/11/08 05:01:11;;;;;;;7.18;2.90;;;;;;;10.23;97.38;100532.31;5005200;28;20034;-76
2022/11/08 05:03:36;;;;;;;9.80;3.63;;;;;;;10.23;97.06;100530.50;4991206;28;20077;-77
2022/11/08 05:06:13;;;;;;;9.40;3.10;;;;;;;10.22;96.91;100523.59;4992466;28;20030;-76
2022/11/08 05:08:39;;;;;;;10.05;3.17;;;;;;;10.18;97.03;100521.28;4990477;28;20038;-77
2022/11/08 05:11:16;;;;;;;9.68;3.40;;;;;;;10.17;96.78;100517.81;4991621;28;20050;-77
2022/11/08 05:13:42;;;;;;;10.43;3.67;;;;;;;10.14;97.02;100517.22;4990834;28;20435;-77
2022/11/08 05:16:16;;;;;;;11.00;3.40;;;;;;;10.12;96.49;100517.34;4990885;28;20046;-77
2022/11/08 05:18:43;;;;;;;8.20;3.20;;;;;;;10.10;96.98;100526.31;4988633;28;20034;-77
2022/11/08 05:23:59;;;;;;;10.50;3.50;;;;;;;10.05;96.42;100522.25;4990841;28;20039;-77
2022/11/08 05:26:27;;;;;;;11.27;3.72;;;;;;;10.03;96.13;100512.81;4989742;28;20080;-76
2022/11/08 05:28:53;;;;;;;12.35;4.05;;;;;;;10.00;96.32;100508.59;5005274;28;20369;-76
2022/11/08 05:31:18;;;;;;;13.30;4.03;;;;;;;10.00;95.91;100498.06;4990160;28;20027;-85
2022/11/08 05:33:44;;;;;;;11.00;3.90;;;;;;;9.99;96.00;100501.66;4987514;28;20030;-77
2022/11/08 05:36:13;;;;;;;14.13;4.28;;;;;;;9.98;95.62;100499.97;5004682;28;20068;-75
2022/11/08 05:38:39;;;;;;;11.00;3.70;;;;;;;9.95;95.84;100494.97;4989213;28;20024;-77
2022/11/08 05:41:08;;;;;;;8.73;3.90;;;;;;;9.93;95.50;100494.25;5005834;28;20030;-84
2022/11/08 05:43:33;;;;;;;10.40;3.67;;;;;;;9.94;95.86;100493.28;4988233;28;20026;-77
2022/11/08 05:45:58;;;;;;;10.60;4.30;;;;;;;9.91;95.80;100498.78;4991013;28;20053;-76
2022/11/08 05:48:24;;;;;;;11.27;4.43;;;;;;;9.91;95.57;100496.16;4990652;28;20105;-77
2022/11/08 05:50:49;;;;;;;9.70;3.70;;;;;;;9.90;95.44;100497.13;4987952;28;20460;-85
2022/11/08 05:53:15;;;;;;;10.15;3.83;;;;;;;9.88;95.67;100488.50;4989459;28;20038;-85
2022/11/08 05:55:40;;;;;;;11.45;4.15;;;;;;;9.88;95.43;100487.69;4990545;28;20105;-78
2022/11/08 05:58:06;;;;;;;8.05;3.45;;;;;;;9.88;95.03;100499.03;5005417;28;20486;-76
2022/11/08 06:00:34;;;;;;;9.18;3.60;;;;;;;9.85;94.97;100493.16;4990673;28;20479;-77
2022/11/08 06:03:06;;;;;;;10.05;3.67;;;;;;;9.84;94.94;100484.44;5001858;28;20066;-77
2022/11/08 06:05:35;;;;;;;10.50;3.67;;;;;;;9.81;94.96;100482.06;5002629;28;20118;-77
2022/11/08 06:08:00;;;;;;;10.48;4.05;;;;;;;9.80;95.24;100483.00;4987676;28;20061;-85
2022/11/08 06:10:26;;;;;;;9.73;3.63;;;;;;;9.80;95.01;100476.91;4989474;28;20062;-76
2022/11/08 06:12:52;;;;;;;12.45;3.83;;;;;;;9.77;95.23;100480.63;4988387;28;20080;-77
2022/11/08 06:15:17;;;;;;;9.65;3.40;;;;;;;9.73;94.96;100479.19;5005876;28;20034;-76
2022/11/08 06:17:43;;;;;;;9.32;3.45;;;;;;;9.73;94.57;100487.06;4990111;28;20040;-76
2022/11/08 06:20:10;;;;;;;9.15;3.42;;;;;;;9.73;94.94;100480.03;4990079;28;20427;-76
2022/11/08 06:22:36;;;;;;;9.52;3.58;;;;;;;9.70;95.15;100479.41;4991980;28;20501;-76
2022/11/08 06:25:02;;;;;;;10.55;3.35;;;;;;;9.68;94.78;100476.06;4990339;28;20026;-77
2022/11/08 06:27:28;;;;;;;10.98;3.67;;;;;;;9.69;94.77;100483.00;4989459;28;20022;-84
2022/11/08 06:29:53;;;;;;;7.82;3.03;;;;;;;9.67;94.80;100487.53;4988208;28;20061;-77
2022/11/08 06:32:19;;;;;;;7.53;2.75;;;;;;;9.68;95.04;100482.16;4990052;28;20026;-85
2022/11/08 06:34:47;;;;;;;11.27;3.20;;;;;;;9.67;94.74;100495.41;4987385;28;20041;-76
2022/11/08 06:37:14;;;;;;;9.93;3.53;;;;;;;9.62;94.84;100487.06;4989568;28;20076;-76
2022/11/08 06:39:40;;;;;;;14.25;3.17;;;;;;;9.63;94.54;100488.72;4983537;28;20038;-85
2022/11/08 06:42:05;;;;;;;8.18;3.05;;;;;;;9.62;94.88;100489.69;4987774;28;20038;-77
2022/11/08 06:44:34;;;;;;;9.32;3.22;;;;;;;9.63;94.54;100493.97;5003657;28;20026;-77
2022/11/08 06:46:59;;;;;;;5.63;2.65;;;;;;;9.62;94.36;100477.38;4989671;28;20022;-76
2022/11/08 06:49:24;;;;;;;6.95;2.72;;;;;;;9.64;94.67;100491.25;4993214;28;20160;-86
2022/11/08 06:51:51;;;;;;;8.82;3.30;;;;;;;9.62;94.26;100497.56;5006749;28;20112;-77
2022/11/08 06:54:17;;;;;;;7.00;3.13;;;;;;;9.59;94.48;100492.50;4988471;28;20034;-85
2022/11/08 06:56:42;;;;;;;8.27;3.38;;;;;;;9.60;94.17;100491.56;4977112;28;20030;-77
2022/11/08 06:59:09;;;;;;;7.45;2.80;;;;;;;9.58;94.23;100488.22;4991412;28;20058;-77
2022/11/08 07:01:35;;;;;;;7.53;3.42;;;;;;;9.55;94.48;100494.53;5006712;28;20545;-77
2022/11/08 07:04:03;;;;;;;8.18;2.63;;;;;;;9.54;94.79;100490.22;4993767;28;20030;-77
2022/11/08 07:06:29;;;;;;;9.45;2.97;;;;;;;9.54;94.68;100499.91;4994368;28;20033;-85
2022/11/08 07:08:54;;;;;;;9.00;2.70;;;;;;;9.54;94.26;100498.13;5007355;28;20386;-77
2022/11/08 07:11:20;;;;;;;6.40;2.25;;;;;;;9.55;94.20;100509.47;4992977;28;20054;-78
2022/11/08 07:13:46;;;;;;;5.97;2.35;;;;;;;9.56;94.03;100503.25;4998266;28;20028;-78
2022/11/08 07:16:12;;;;;;;6.25;2.53;;;;;;;9.56;94.25;100501.47;4991269;28;20022;-85
2022/11/08 07:18:37;;;;;;;5.53;2.70;;;;;;;9.57;94.13;100503.13;4989572;28;20080;-77
2022/11/08 07:21:02;;;;;;;8.45;2.75;;;;;;;9.59;93.57;100505.66;4992400;28;20022;-77
2022/11/08 07:23:28;;;;;;;5.07;2.35;;;;;;;9.62;93.25;100501.03;4993600;28;20023;-76
2022/11/08 07:25:54;;;;;;;7.32;2.60;;;;;;;9.63;93.12;100489.56;4991085;28;20036;-84
2022/11/08 07:28:19;;;;;;;5.45;2.45;;;;;;;9.69;93.17;100498.75;4992846;28;20093;-85
2022/11/08 07:30:46;;;;;;;5.22;2.20;;;;;;;9.72;93.08;100498.53;4990606;28;20089;-76
2022/11/08 07:33:13;;;;;;;6.20;2.03;;;;;;;9.78;92.33;100497.22;4992889;28;20034;-76
2022/11/08 07:35:39;;;;;;;6.22;1.70;;;;;;;9.85;91.48;100504.50;4992212;28;20019;-77
2022/11/08 07:38:04;;;;;;;5.43;1.73;;;;;;;9.90;91.54;100486.59;4991660;28;20033;-77
2022/11/08 07:40:29;;;;;;;4.63;1.77;;;;;;;9.99;90.75;100495.56;4992504;28;20026;-76
2022/11/08 07:42:58;;;;;;;3.75;1.83;;;;;;;10.11;89.90;100496.44;4992276;28;20495;-84
2022/11/08 07:45:24;;;;;;;4.25;1.60;;;;;;;10.19;89.34;100496.66;4991701;28;20068;-84
2022/11/08 07:48:01;;;;;;;6.15;1.73;;;;;;;10.31;88.34;100495.72;5006823;28;20534;-85
2022/11/08 07:50:27;;;;;;;6.60;1.70;;;;;;;10.39;88.20;100487.22;5004938;28;20022;-85
2022/11/08 07:52:53;;;;;;;9.90;1.90;;;;;;;10.47;87.42;100480.44;5006447;28;20116;-85
2022/11/08 07:55:19;;;;;;;5.00;1.38;;;;;;;10.56;86.88;100484.13;4992618;28;20107;-86
2022/11/08 07:57:45;;;;;;;3.90;1.65;;;;;;;10.65;86.20;100489.47;4990927;28;20486;-86
2022/11/08 08:00:13;;;;;;;3.22;1.67;;;;;;;10.76;85.42;100479.88;4992547;28;20026;-86
2022/11/08 08:02:38;;;;;;;5.07;1.70;;;;;;;10.88;84.13;100474.47;5006065;28;20027;-87
2022/11/08 08:05:04;;;;;;;3.83;1.40;;;;;;;10.97;83.90;100478.16;4991550;28;20030;-76
2022/11/08 08:07:29;;;;;;;6.03;1.88;;;;;;;11.06;82.96;100477.41;4992504;28;20026;-75
2022/11/08 08:09:55;;;;;;;4.63;1.85;;;;;;;11.15;83.16;100476.63;4998800;28;20025;-76
2022/11/08 08:12:20;;;;;;;4.25;1.80;;;;;;;11.25;81.92;100480.19;5010814;28;20568;-77
2022/11/08 08:14:45;;;;;;;3.35;1.42;;;;;;;11.34;81.57;100480.41;5009672;28;20497;-77
2022/11/08 08:17:11;;;;;;;5.75;1.67;;;;;;;11.42;80.55;100472.69;5026031;28;20030;-76
2022/11/08 08:19:36;;;;;;;6.38;1.52;;;;;;;11.49;79.82;100490.47;5009747;28;20030;-77
2022/11/08 08:22:02;;;;;;;3.85;1.70;;;;;;;11.56;80.23;100480.25;5010733;28;20386;-84
2022/11/08 08:24:27;;;;;;;4.75;1.60;;;;;;;11.60;79.86;100486.94;5007551;28;20034;-83
2022/11/08 08:26:53;;;;;;;5.43;2.00;;;;;;;11.65;79.47;100482.16;4991507;28;20029;-77
2022/11/08 08:29:20;;;;;;;3.33;2.00;;;;;;;11.69;79.19;100491.47;4992448;28;20049;-77
2022/11/08 08:31:45;;;;;;;3.80;1.75;;;;;;;11.74;78.82;100494.53;5006630;28;20062;-77
2022/11/08 08:34:11;;;;;;;9.13;1.60;;;;;;;11.77;78.84;100504.00;4989584;28;20507;-76
2022/11/08 08:36:36;;;;;;;2.45;1.77;;;;;;;11.83;78.13;100520.16;4988646;28;20030;-76
2022/11/08 08:39:03;;;;;;;3.58;1.50;;;;;;;11.86;78.74;100514.63;4992340;28;20030;-75
2022/11/08 08:41:29;;;;;;;5.75;1.60;;;;;;;11.93;78.38;100494.69;4991625;28;20030;-86
2022/11/08 08:43:54;;;;;;;5.85;2.00;;;;;;;11.99;78.08;100490.69;4991677;28;20029;-86
2022/11/08 08:46:19;;;;;;;6.07;1.60;;;;;;;12.04;77.37;100500.84;4991776;28;20130;-76
2022/11/08 08:48:45;;;;;;;3.78;1.75;;;;;;;12.08;77.56;100478.53;4991581;28;20034;-76
2022/11/08 08:51:10;;;;;;;6.68;2.00;;;;;;;12.13;76.84;100473.69;4992110;28;20493;-76
2022/11/08 08:53:35;;;;;;;5.97;1.58;;;;;;;12.18;76.57;100476.75;4990290;28;20095;-76
2022/11/08 08:56:04;;;;;;;4.38;1.55;;;;;;;12.24;76.45;100486.78;4991684;28;20026;-76
2022/11/08 08:58:29;;;;;;;6.00;1.80;;;;;;;12.29;76.62;100478.47;4991495;28;20098;-75
2022/11/08 09:00:59;;;;;;;5.30;1.83;;;;;;;12.33;76.42;100479.84;4988774;28;20229;-76
2022/11/08 09:03:24;;;;;;;5.47;1.75;;;;;;;12.38;76.28;100485.56;4991125;28;20018;-76
2022/11/08 09:05:50;;;;;;;3.38;1.58;;;;;;;12.41;76.01;100472.97;4989909;28;20022;-76
2022/11/08 09:08:15;;;;;;;3.30;1.67;;;;;;;12.47;75.74;100461.03;4993127;28;20092;-76
2022/11/08 09:10:41;;;;;;;3.90;1.60;;;;;;;12.53;75.37;100461.31;4989653;28;20058;-86
2022/11/08 09:13:06;;;;;;;3.55;1.60;;;;;;;12.60;74.85;100460.78;4991130;28;20498;-87
2022/11/08 09:15:32;;;;;;;3.42;1.80;;;;;;;12.63;74.42;100481.63;4990530;28;20026;-77
2022/11/08 09:17:58;;;;;;;6.28;1.42;;;;;;;12.66;74.49;100487.47;4990643;28;20037;-76
2022/11/08 09:20:24;;;;;;;6.10;1.58;;;;;;;12.69;74.41;100481.91;4990774;28;20482;-74
2022/11/08 09:22:50;;;;;;;6.13;2.05;;;;;;;12.74;74.40;100474.41;4989917;28;20058;-77
2022/11/08 09:25:15;;;;;;;2.28;1.50;;;;;;;12.75;74.12;100454.97;4991108;28;20065;-76
2022/11/08 09:27:41;;;;;;;4.90;1.70;;;;;;;12.75;74.39;100462.03;4990436;28;20545;-85
2022/11/08 09:30:07;;;;;;;5.78;2.00;;;;;;;12.78;74.42;100459.97;4990233;28;20112;-87
2022/11/08 09:32:35;;;;;;;6.22;2.35;;;;;;;12.78;74.44;100459.97;4990439;28;20018;-86
2022/11/08 09:35:00;;;;;;;5.28;1.80;;;;;;;12.81;74.38;100466.81;4989605;28;20029;-76
2022/11/08 09:37:27;;;;;;;3.28;1.90;;;;;;;12.82;74.30;100465.84;4989188;28;20049;-76
2022/11/08 09:39:53;;;;;;;6.65;2.15;;;;;;;12.87;74.10;100476.81;4991357;28;20076;-76
2022/11/08 09:42:41;;;;;;;6.70;1.98;;;;;;;12.95;73.44;100455.81;4990993;28;20057;-76
2022/11/08 09:45:28;;;;;;;5.85;1.90;;;;;;;13.05;74.54;100458.47;4971579;28;20089;-76
2022/11/08 09:48:04;;;;;;;5.70;1.70;;;;;;;13.14;73.28;100461.09;4970391;28;20661;-76
2022/11/08 09:50:51;;;;;;;2.83;1.40;;;;;;;13.24;73.84;100462.97;4971149;28;20023;-76
2022/11/08 09:53:20;;;;;;;2.78;1.67;;;;;;;13.28;72.58;100478.38;4971499;28;20057;-76
2022/11/08 09:56:03;;;;;;;4.53;1.90;;;;;;;13.35;73.03;100483.94;4979034;28;20074;-75
2022/11/08 09:58:50;;;;;;;4.28;1.80;;;;;;;13.44;73.63;100468.06;5003998;28;20636;-84
2022/11/08 10:01:16;;;;;;;7.43;1.90;;;;;;;13.46;71.49;100468.75;4994791;28;20664;-75
2022/11/08 10:03:49;;;;;;;6.78;1.80;;;;;;;13.52;71.69;100469.16;4992646;28;20022;-75
2022/11/08 10:06:23;;;;;;;4.45;1.60;;;;;;;13.60;71.49;100467.47;4991220;28;20474;-75
2022/11/08 10:09:03;;;;;;;3.90;1.75;;;;;;;13.70;70.90;100491.28;4983804;28;20022;-75
2022/11/08 10:11:44;;;;;;;6.07;1.80;;;;;;;13.74;71.05;100477.63;4991676;28;20086;-75
2022/11/08 10:14:34;;;;;;;5.28;1.67;;;;;;;13.84;71.50;100477.59;4989946;28;20034;-75
2022/11/08 10:17:25;;;;;;;5.47;1.67;;;;;;;13.92;70.67;100498.03;5005863;28;20042;-74
2022/11/08 10:20:15;;;;;;;5.45;1.70;;;;;;;13.98;71.06;100489.50;4988776;28;20026;-75
2022/11/08 10:22:46;;;;;;;5.18;1.85;;;;;;;13.98;69.59;100486.88;5004268;28;20525;-75
2022/11/08 10:25:23;;;;;;;5.22;1.52;;;;;;;14.02;69.54;100488.28;4989575;28;20029;-75
2022/11/08 10:27:55;;;;;;;3.42;1.60;;;;;;;14.02;69.49;100488.28;4984951;28;20058;-75
2022/11/08 10:30:25;;;;;;;4.72;1.90;;;;;;;14.00;69.36;100506.91;4989220;28;20053;-84
2022/11/08 10:32:54;;;;;;;3.25;1.60;;;;;;;14.04;69.37;100495.09;4987833;28;20026;-75
2022/11/08 10:35:30;;;;;;;4.45;1.80;;;;;;;14.06;69.70;100505.53;4988715;28;20049;-75
2022/11/08 10:37:58;;;;;;;6.72;1.77;;;;;;;14.11;69.30;100503.28;5004906;28;20129;-75
2022/11/08 10:40:50;;;;;;;4.72;1.80;;;;;;;14.12;69.33;100497.00;4989783;28;20064;-75
2022/11/08 10:43:39;;;;;;;4.97;1.90;;;;;;;14.08;68.95;100499.13;4990086;28;20033;-75
2022/11/08 10:46:34;;;;;;;9.82;2.20;;;;;;;14.11;69.34;100503.28;4987805;28;20108;-76
2022/11/08 10:49:20;;;;;;;2.95;1.67;;;;;;;14.14;70.44;100495.06;4982483;28;20380;-75
2022/11/08 10:51:48;;;;;;;5.70;1.60;;;;;;;14.19;69.10;100503.38;4984359;28;20109;-84
2022/11/08 10:54:41;;;;;;;3.30;1.70;;;;;;;14.29;69.72;100495.41;4970003;28;20027;-75
2022/11/08 10:57:09;;;;;;;4.45;1.60;;;;;;;14.32;69.64;100489.81;4976284;28;20394;-85
2022/11/08 10:59:35;;;;;;;2.90;1.50;;;;;;;14.37;68.08;100488.38;5004009;28;20026;-76
2022/11/08 11:02:17;;;;;;;3.33;1.67;;;;;;;14.40;68.46;100482.78;4989446;28;20026;-76
2022/11/08 11:04:42;;;;;;;5.18;1.85;;;;;;;14.39;68.04;100494.38;4986863;28;20530;-76
2022/11/08 11:07:33;;;;;;;3.55;1.70;;;;;;;14.46;69.03;100470.00;4982344;28;20128;-75
2022/11/08 11:10:32;;;;;;;4.35;1.80;;;;;;;14.46;69.02;100475.31;4971698;28;20046;-76
2022/11/08 11:13:20;;;;;;;2.92;1.63;;;;;;;14.38;68.18;100458.28;4984417;28;20096;-75
2022/11/08 11:15:56;;;;;;;8.20;1.80;;;;;;;14.39;68.03;100444.06;4981350;28;20073;-76
2022/11/08 11:18:33;;;;;;;2.63;1.67;;;;;;;14.39;68.94;100475.00;4984001;28;20031;-75
2022/11/08 11:21:03;;;;;;;5.15;1.85;;;;;;;14.39;68.24;100461.78;4984101;28;20045;-76
2022/11/08 11:23:41;;;;;;;3.63;1.50;;;;;;;14.38;68.33;100453.00;4990494;28;20037;-75
2022/11/08 11:26:15;;;;;;;3.25;1.80;;;;;;;14.41;68.51;100442.16;4999635;28;20026;-76
2022/11/08 11:29:17;;;;;;;5.72;1.80;;;;;;;14.47;68.82;100430.16;4994534;28;20022;-75
2022/11/08 11:31:48;;;;;;;4.07;1.70;;;;;;;14.50;67.89;100429.84;4980103;28;20042;-75
2022/11/08 11:34:17;;;;;;;3.75;1.67;;;;;;;14.52;67.78;100440.28;4988439;28;20030;-76
2022/11/08 11:37:16;;;;;;;4.63;1.65;;;;;;;14.61;69.46;100440.22;4987891;28;20509;-76
2022/11/08 11:39:50;;;;;;;6.22;2.05;;;;;;;14.64;67.58;100454.97;5004928;28;20022;-76
2022/11/08 11:42:23;;;;;;;3.25;1.67;;;;;;;14.67;67.44;100441.44;5007162;28;20057;-76
2022/11/08 11:45:02;;;;;;;5.40;1.80;;;;;;;14.69;67.76;100436.81;4986314;28;20475;-76
2022/11/08 11:47:47;;;;;;;5.47;1.90;;;;;;;14.75;68.45;100422.97;4992363;28;20033;-75
2022/11/08 11:50:43;;;;;;;3.38;1.80;;;;;;;14.80;68.48;100423.34;4988181;28;20105;-75